createdAt,value
2022-10-18T00:00:10.272Z,128
2022-10-18T00:01:10.251Z,126
2022-10-18T00:02:10.343Z,130
2022-10-18T00:03:10.269Z,127
2022-10-18T00:04:10.249Z,139
2022-10-18T00:05:10.257Z,120
2022-10-18T00:06:10.242Z,119
2022-10-18T00:07:10.235Z,119
2022-10-18T00:08:11.287Z,130
2022-10-18T00:09:10.238Z,118
2022-10-18T00:10:10.251Z,132
2022-10-18T00:11:10.251Z,129
2022-10-18T00:12:10.257Z,146
2022-10-18T00:13:10.229Z,138
2022-10-18T00:14:10.248Z,143
2022-10-18T00:15:10.228Z,119
2022-10-18T00:16:10.254Z,114
2022-10-18T00:17:10.260Z,115
2022-10-18T00:18:10.243Z,118
2022-10-18T00:19:10.224Z,134
2022-10-18T00:20:10.220Z,128
2022-10-18T00:21:10.223Z,126
2022-10-18T00:22:10.288Z,178
2022-10-18T00:23:10.234Z,125
2022-10-18T00:24:10.237Z,116
2022-10-18T00:25:10.222Z,135
2022-10-18T00:26:10.218Z,142
2022-10-18T00:27:10.232Z,134
2022-10-18T00:28:10.210Z,143
2022-10-18T00:29:10.226Z,127
2022-10-18T00:30:10.209Z,111
2022-10-18T00:31:10.213Z,137
2022-10-18T00:32:10.252Z,116
2022-10-18T00:33:10.215Z,116
2022-10-18T00:34:10.212Z,112
2022-10-18T00:35:10.215Z,121
2022-10-18T00:36:10.203Z,113
2022-10-18T00:37:10.201Z,111
2022-10-18T00:38:10.195Z,117
2022-10-18T00:39:10.219Z,128
2022-10-18T00:40:10.204Z,115
2022-10-18T00:41:10.203Z,115
2022-10-18T00:42:10.192Z,114
2022-10-18T00:43:10.200Z,107
2022-10-18T00:44:10.210Z,120
2022-10-18T00:45:10.197Z,102
2022-10-18T00:46:10.189Z,116
2022-10-18T00:47:10.193Z,136
2022-10-18T00:48:10.230Z,126
2022-10-18T00:49:10.191Z,134
2022-10-18T00:50:10.206Z,104
2022-10-18T00:51:10.185Z,115
2022-10-18T00:52:10.183Z,106
2022-10-18T00:53:10.186Z,98
2022-10-18T00:54:10.186Z,103
2022-10-18T00:55:10.199Z,88
2022-10-18T00:56:10.183Z,117
2022-10-18T00:57:10.178Z,97
2022-10-18T00:58:10.177Z,89
2022-10-18T00:59:10.175Z,96
2022-10-18T01:00:10.244Z,99
2022-10-18T01:01:10.278Z,106
2022-10-18T01:02:10.300Z,110
2022-10-18T01:03:10.179Z,87
2022-10-18T01:04:10.202Z,97
2022-10-18T01:05:10.173Z,100
2022-10-18T01:06:10.173Z,125
2022-10-18T01:07:10.182Z,121
2022-10-18T01:08:10.164Z,116
2022-10-18T01:09:10.168Z,111
2022-10-18T01:10:10.163Z,121
2022-10-18T01:11:10.176Z,109
2022-10-18T01:12:10.185Z,102
2022-10-18T01:13:10.157Z,95
2022-10-18T01:14:10.161Z,86
2022-10-18T01:15:10.166Z,87
2022-10-18T01:16:10.159Z,113
2022-10-18T01:17:10.202Z,101
2022-10-18T01:18:10.154Z,87
2022-10-18T01:19:10.161Z,95
2022-10-18T01:20:10.175Z,88
2022-10-18T01:21:10.162Z,94
2022-10-18T01:22:10.163Z,100
2022-10-18T01:23:10.150Z,97
2022-10-18T01:24:10.146Z,108
2022-10-18T01:25:10.147Z,96
2022-10-18T01:26:10.143Z,100
2022-10-18T01:27:10.160Z,111
2022-10-18T01:28:10.147Z,147
2022-10-18T01:29:10.148Z,105
2022-10-18T01:30:10.148Z,83
2022-10-18T01:31:10.138Z,88
2022-10-18T01:32:10.151Z,99
2022-10-18T01:33:10.135Z,113
2022-10-18T01:34:10.147Z,99
2022-10-18T01:35:10.136Z,106
2022-10-18T01:36:10.177Z,91
2022-10-18T01:37:10.134Z,102
2022-10-18T01:38:10.130Z,100
2022-10-18T01:39:10.147Z,88
2022-10-18T01:40:10.134Z,79
2022-10-18T01:41:13.289Z,98
2022-10-18T01:42:10.129Z,97
2022-10-18T01:43:10.142Z,102
2022-10-18T01:44:10.123Z,89
2022-10-18T01:45:10.125Z,89
2022-10-18T01:46:10.199Z,87
2022-10-18T01:47:10.134Z,96
2022-10-18T01:48:10.129Z,88
2022-10-18T01:49:10.121Z,77
2022-10-18T01:50:10.125Z,92
2022-10-18T01:51:10.134Z,98
2022-10-18T01:52:10.148Z,102
2022-10-18T01:53:10.133Z,85
2022-10-18T01:54:10.116Z,86
2022-10-18T01:55:10.110Z,98
2022-10-18T01:56:10.128Z,83
2022-10-18T01:57:10.107Z,83
2022-10-18T01:58:10.123Z,74
2022-10-18T01:59:10.114Z,68
2022-10-18T02:00:10.109Z,76
2022-10-18T02:02:10.102Z,75
2022-10-18T02:03:10.116Z,85
2022-10-18T02:04:10.113Z,74
2022-10-18T02:05:10.104Z,91
2022-10-18T02:06:10.105Z,86
2022-10-18T02:07:10.101Z,87
2022-10-18T02:08:22.767Z,85
2022-10-18T02:09:10.094Z,77
2022-10-18T02:10:10.150Z,69
2022-10-18T02:11:10.088Z,77
2022-10-18T02:12:10.108Z,78
2022-10-18T02:13:10.107Z,76
2022-10-18T02:14:10.088Z,74
2022-10-18T02:15:10.093Z,69
2022-10-18T02:16:10.095Z,79
2022-10-18T02:17:10.132Z,81
2022-10-18T02:18:10.082Z,85
2022-10-18T02:19:10.086Z,76
2022-10-18T02:20:10.093Z,64
2022-10-18T02:21:10.082Z,77
2022-10-18T02:22:10.097Z,90
2022-10-18T02:23:10.098Z,81
2022-10-18T02:24:10.118Z,88
2022-10-18T02:25:10.078Z,82
2022-10-18T02:26:10.070Z,93
2022-10-18T02:27:10.069Z,82
2022-10-18T02:28:11.524Z,70
2022-10-18T02:29:10.091Z,78
2022-10-18T02:30:10.076Z,83
2022-10-18T02:31:10.069Z,77
2022-10-18T02:32:10.068Z,79
2022-10-18T02:33:10.066Z,76
2022-10-18T02:34:10.082Z,84
2022-10-18T02:35:10.077Z,86
2022-10-18T02:36:10.070Z,97
2022-10-18T02:37:10.079Z,84
2022-10-18T02:38:10.066Z,93
2022-10-18T02:39:10.075Z,73
2022-10-18T02:40:10.083Z,67
2022-10-18T02:41:10.062Z,78
2022-10-18T02:42:10.071Z,81
2022-10-18T02:43:10.061Z,87
2022-10-18T02:44:10.070Z,70
2022-10-18T02:45:10.057Z,88
2022-10-18T02:46:10.059Z,77
2022-10-18T02:47:10.054Z,85
2022-10-18T02:48:10.070Z,75
2022-10-18T02:49:10.051Z,77
2022-10-18T02:50:10.046Z,92
2022-10-18T02:51:10.083Z,84
2022-10-18T02:52:10.045Z,77
2022-10-18T02:53:10.048Z,74
2022-10-18T02:54:10.047Z,76
2022-10-18T02:55:10.056Z,74
2022-10-18T02:56:10.087Z,70
2022-10-18T02:57:10.050Z,74
2022-10-18T02:58:10.042Z,74
2022-10-18T02:59:10.034Z,83
2022-10-18T03:00:10.035Z,75
2022-10-18T03:01:10.131Z,78
2022-10-18T03:02:10.040Z,86
2022-10-18T03:03:10.034Z,75
2022-10-18T03:04:10.029Z,73
2022-10-18T03:05:10.033Z,76
2022-10-18T03:06:10.042Z,67
2022-10-18T03:07:10.037Z,90
2022-10-18T03:08:10.045Z,80
2022-10-18T03:09:10.029Z,84
2022-10-18T03:10:10.030Z,79
2022-10-18T03:11:10.046Z,68
2022-10-18T03:12:10.068Z,62
2022-10-18T03:13:10.022Z,80
2022-10-18T03:14:10.029Z,75
2022-10-18T03:15:11.031Z,69
2022-10-18T03:16:10.017Z,70
2022-10-18T03:17:10.067Z,79
2022-10-18T03:18:10.017Z,91
2022-10-18T03:19:10.012Z,98
2022-10-18T03:20:10.018Z,92
2022-10-18T03:21:10.053Z,66
2022-10-18T03:22:10.007Z,80
2022-10-18T03:23:10.014Z,77
2022-10-18T03:24:10.005Z,67
2022-10-18T03:25:10.007Z,70
2022-10-18T03:26:10.006Z,82
2022-10-18T03:27:10.016Z,63
2022-10-18T03:28:10.028Z,81
2022-10-18T03:29:10.060Z,73
2022-10-18T03:30:10.017Z,82
2022-10-18T03:31:10.003Z,77
2022-10-18T03:32:09.995Z,74
2022-10-18T03:33:10.001Z,72
2022-10-18T03:34:10.019Z,72
2022-10-18T03:35:09.994Z,74
2022-10-18T03:36:10.001Z,64
2022-10-18T03:37:10.010Z,80
2022-10-18T03:38:09.991Z,65
2022-10-18T03:39:10.006Z,64
2022-10-18T03:40:09.999Z,72
2022-10-18T03:41:09.995Z,76
2022-10-18T03:42:09.999Z,75
2022-10-18T03:43:09.998Z,78
2022-10-18T03:44:10.027Z,70
2022-10-18T03:45:09.989Z,73
2022-10-18T03:46:09.989Z,70
2022-10-18T03:47:09.982Z,86
2022-10-18T03:48:09.987Z,95
2022-10-18T03:49:09.997Z,91
2022-10-18T03:50:09.999Z,99
2022-10-18T03:51:09.984Z,100
2022-10-18T03:52:09.974Z,82
2022-10-18T03:53:09.970Z,84
2022-10-18T03:54:09.996Z,96
2022-10-18T03:55:09.978Z,100
2022-10-18T03:56:09.983Z,95
2022-10-18T03:57:09.972Z,81
2022-10-18T03:58:09.972Z,80
2022-10-18T03:59:09.987Z,84
2022-10-18T04:00:10.015Z,85
2022-10-18T04:01:10.025Z,80
2022-10-18T04:02:09.965Z,80
2022-10-18T04:03:09.979Z,84
2022-10-18T04:04:09.964Z,79
2022-10-18T04:05:09.960Z,93
2022-10-18T04:06:10.054Z,77
2022-10-18T04:07:09.963Z,71
2022-10-18T04:08:09.972Z,55
2022-10-18T04:09:10.359Z,55
2022-10-18T04:10:09.955Z,68
2022-10-18T04:11:09.983Z,60
2022-10-18T04:12:09.954Z,66
2022-10-18T04:13:09.972Z,79
2022-10-18T04:14:09.953Z,90
2022-10-18T04:15:09.954Z,90
2022-10-18T04:16:09.989Z,84
2022-10-18T04:17:09.952Z,86
2022-10-18T04:18:09.982Z,87
2022-10-18T04:19:09.955Z,93
2022-10-18T04:20:09.944Z,85
2022-10-18T04:21:09.938Z,74
2022-10-18T04:22:09.940Z,133
2022-10-18T04:23:09.945Z,176
2022-10-18T04:24:09.954Z,172
2022-10-18T04:25:09.942Z,185
2022-10-18T04:26:09.944Z,187
2022-10-18T04:27:09.945Z,191
2022-10-18T04:28:09.931Z,203
2022-10-18T04:29:10.076Z,198
2022-10-18T04:30:09.934Z,196
2022-10-18T04:31:09.931Z,197
2022-10-18T04:32:09.937Z,209
2022-10-18T04:33:09.938Z,183
2022-10-18T04:34:09.950Z,189
2022-10-18T04:35:09.953Z,201
2022-10-18T04:36:09.930Z,225
2022-10-18T04:37:09.927Z,214
2022-10-18T04:38:09.926Z,193
2022-10-18T04:39:09.938Z,204
2022-10-18T04:40:09.928Z,196
2022-10-18T04:41:09.920Z,184
2022-10-18T04:42:09.928Z,175
2022-10-18T04:43:09.916Z,177
2022-10-18T04:44:09.938Z,169
2022-10-18T04:45:09.932Z,190
2022-10-18T04:46:09.913Z,200
2022-10-18T04:47:09.915Z,174
2022-10-18T04:48:09.915Z,175
2022-10-18T04:49:09.915Z,174
2022-10-18T04:50:09.922Z,174
2022-10-18T04:51:09.947Z,173
2022-10-18T04:52:09.909Z,174
2022-10-18T04:53:09.917Z,171
2022-10-18T04:54:09.919Z,164
2022-10-18T04:55:09.903Z,161
2022-10-18T04:56:09.904Z,162
2022-10-18T04:57:09.904Z,153
2022-10-18T04:58:09.904Z,168
2022-10-18T04:59:09.916Z,173
2022-10-18T05:00:09.899Z,163
2022-10-18T05:01:09.895Z,161
2022-10-18T05:02:09.900Z,161
2022-10-18T05:03:09.892Z,168
2022-10-18T05:04:09.907Z,168
2022-10-18T05:05:11.775Z,150
2022-10-18T05:06:09.897Z,147
2022-10-18T05:07:09.913Z,151
2022-10-18T05:08:09.896Z,155
2022-10-18T05:09:09.901Z,141
2022-10-18T05:10:09.891Z,152
2022-10-18T05:12:09.885Z,155
2022-10-18T05:13:09.895Z,155
2022-10-18T05:14:09.882Z,138
2022-10-18T05:15:09.889Z,124
2022-10-18T05:16:09.885Z,128
2022-10-18T05:17:09.879Z,144
2022-10-18T05:18:09.929Z,150
2022-10-18T05:19:09.896Z,124
2022-10-18T05:20:10.075Z,133
2022-10-18T05:21:09.870Z,142
2022-10-18T05:22:09.887Z,121
2022-10-18T05:23:09.894Z,113
2022-10-18T05:24:09.870Z,125
2022-10-18T05:25:09.878Z,122
2022-10-18T05:26:09.871Z,120
2022-10-18T05:27:09.871Z,108
2022-10-18T05:28:34.079Z,115
2022-10-18T05:29:10.017Z,126
2022-10-18T05:30:09.879Z,124
2022-10-18T05:31:09.885Z,143
2022-10-18T05:32:09.857Z,142
2022-10-18T05:33:09.881Z,128
2022-10-18T05:34:09.867Z,112
2022-10-18T05:35:09.872Z,104
2022-10-18T05:36:09.883Z,114
2022-10-18T05:37:09.859Z,123
2022-10-18T05:38:09.859Z,158
2022-10-18T05:39:09.882Z,149
2022-10-18T05:40:09.869Z,135
2022-10-18T05:41:09.846Z,128
2022-10-18T05:42:09.845Z,148
2022-10-18T05:43:09.847Z,135
2022-10-18T05:44:09.859Z,142
2022-10-18T05:45:09.853Z,151
2022-10-18T05:46:14.582Z,176
2022-10-18T05:47:09.856Z,144
2022-10-18T05:48:09.845Z,124
2022-10-18T05:49:09.868Z,129
2022-10-18T05:50:09.852Z,131
2022-10-18T05:51:09.860Z,139
2022-10-18T05:52:09.839Z,144
2022-10-18T05:53:12.415Z,173
2022-10-18T05:54:09.856Z,149
2022-10-18T05:55:09.866Z,140
2022-10-18T05:56:09.833Z,136
2022-10-18T05:57:09.840Z,129
2022-10-18T05:58:09.850Z,123
2022-10-18T05:59:09.857Z,165
2022-10-18T06:00:09.851Z,144
2022-10-18T06:01:09.831Z,154
2022-10-18T06:02:09.875Z,182
2022-10-18T06:03:09.823Z,183
2022-10-18T06:04:09.838Z,178
2022-10-18T06:05:09.878Z,152
2022-10-18T06:06:09.832Z,133
2022-10-18T06:07:09.820Z,210
2022-10-18T06:08:10.387Z,232
2022-10-18T06:09:09.836Z,252
2022-10-18T06:10:09.818Z,193
2022-10-18T06:11:09.838Z,156
2022-10-18T06:12:09.818Z,143
2022-10-18T06:13:09.817Z,137
2022-10-18T06:14:09.838Z,134
2022-10-18T06:15:09.832Z,134
2022-10-18T06:16:09.817Z,142
2022-10-18T06:17:09.814Z,125
2022-10-18T06:18:09.842Z,145
2022-10-18T06:19:09.828Z,132
2022-10-18T06:20:09.807Z,124
2022-10-18T06:21:09.806Z,122
2022-10-18T06:22:09.822Z,130
2022-10-18T06:23:09.817Z,169
2022-10-18T06:24:09.843Z,176
2022-10-18T06:25:09.826Z,153
2022-10-18T06:26:09.805Z,167
2022-10-18T06:27:09.928Z,154
2022-10-18T06:28:11.518Z,159
2022-10-18T06:29:09.911Z,150
2022-10-18T06:30:09.799Z,165
2022-10-18T06:31:09.912Z,172
2022-10-18T06:32:09.796Z,155
2022-10-18T06:33:09.793Z,143
2022-10-18T06:34:09.811Z,137
2022-10-18T06:35:09.795Z,150
2022-10-18T06:36:09.795Z,147
2022-10-18T06:37:09.793Z,160
2022-10-18T06:38:09.813Z,150
2022-10-18T06:39:09.804Z,161
2022-10-18T06:40:09.807Z,150
2022-10-18T06:41:09.787Z,151
2022-10-18T06:42:09.796Z,172
2022-10-18T06:43:20.667Z,169
2022-10-18T06:44:09.796Z,169
2022-10-18T06:45:09.781Z,165
2022-10-18T06:46:09.816Z,164
2022-10-18T06:47:09.777Z,173
2022-10-18T06:48:09.908Z,178
2022-10-18T06:49:10.651Z,175
2022-10-18T06:50:09.787Z,185
2022-10-18T06:51:09.763Z,171
2022-10-18T06:52:09.774Z,164
2022-10-18T06:53:09.783Z,168
2022-10-18T06:54:18.358Z,162
2022-10-18T06:55:09.760Z,202
2022-10-18T06:56:09.768Z,204
2022-10-18T06:57:09.764Z,197
2022-10-18T06:58:09.767Z,187
2022-10-18T06:59:09.806Z,176
2022-10-18T07:00:09.784Z,201
2022-10-18T07:01:09.915Z,188
2022-10-18T07:02:09.759Z,201
2022-10-18T07:03:09.752Z,213
2022-10-18T07:04:09.775Z,196
2022-10-18T07:05:09.765Z,195
2022-10-18T07:06:09.760Z,228
2022-10-18T07:07:09.765Z,211
2022-10-18T07:08:09.754Z,200
2022-10-18T07:09:09.767Z,188
2022-10-18T07:10:12.935Z,199
2022-10-18T07:11:09.745Z,210
2022-10-18T07:12:09.755Z,201
2022-10-18T07:13:33.611Z,199
2022-10-18T07:14:12.620Z,198
2022-10-18T07:15:09.845Z,191
2022-10-18T07:16:11.600Z,184
2022-10-18T07:17:09.754Z,201
2022-10-18T07:18:09.769Z,204
2022-10-18T07:19:09.752Z,206
2022-10-18T07:20:09.743Z,205
2022-10-18T07:21:09.739Z,205
2022-10-18T07:22:09.770Z,212
2022-10-18T07:23:09.739Z,225
2022-10-18T07:24:09.755Z,215
2022-10-18T07:25:09.769Z,215
2022-10-18T07:26:09.746Z,209
2022-10-18T07:27:09.747Z,210
2022-10-18T07:28:09.767Z,222
2022-10-18T07:29:09.865Z,209
2022-10-18T07:30:09.743Z,211
2022-10-18T07:31:09.781Z,217
2022-10-18T07:32:09.740Z,219
2022-10-18T07:33:09.727Z,219
2022-10-18T07:34:09.741Z,216
2022-10-18T07:35:09.758Z,224
2022-10-18T07:36:09.727Z,225
2022-10-18T07:37:09.721Z,228
2022-10-18T07:38:09.723Z,226
2022-10-18T07:39:09.728Z,236
2022-10-18T07:40:09.748Z,232
2022-10-18T07:41:09.735Z,232
2022-10-18T07:42:09.710Z,224
2022-10-18T07:43:12.155Z,217
2022-10-18T07:44:09.708Z,229
2022-10-18T07:45:09.715Z,225
2022-10-18T07:46:09.710Z,207
2022-10-18T07:47:09.744Z,216
2022-10-18T07:48:09.715Z,230
2022-10-18T07:49:09.707Z,228
2022-10-18T07:50:09.706Z,225
2022-10-18T07:51:09.712Z,232
2022-10-18T07:52:09.698Z,239
2022-10-18T07:53:09.715Z,254
2022-10-18T07:54:09.712Z,226
2022-10-18T07:55:09.703Z,217
2022-10-18T07:56:09.869Z,222
2022-10-18T07:57:09.716Z,214
2022-10-18T07:58:09.754Z,222
2022-10-18T07:59:09.717Z,241
2022-10-18T08:00:09.697Z,231
2022-10-18T08:01:09.847Z,240
2022-10-18T08:02:09.697Z,239
2022-10-18T08:03:09.721Z,228
2022-10-18T08:04:13.966Z,224
2022-10-18T08:05:09.685Z,213
2022-10-18T08:06:09.709Z,209
2022-10-18T08:07:09.691Z,225
2022-10-18T08:08:09.682Z,266
2022-10-18T08:09:09.719Z,322
2022-10-18T08:10:09.681Z,382
2022-10-18T08:11:09.675Z,306
2022-10-18T08:12:09.683Z,405
2022-10-18T08:13:09.667Z,287
2022-10-18T08:14:09.693Z,250
2022-10-18T08:15:09.684Z,237
2022-10-18T08:16:09.669Z,242
2022-10-18T08:17:09.672Z,250
2022-10-18T08:18:09.811Z,277
2022-10-18T08:19:09.686Z,286
2022-10-18T08:20:12.206Z,235
2022-10-18T08:21:09.691Z,230
2022-10-18T08:22:09.682Z,264
2022-10-18T08:23:09.661Z,285
2022-10-18T08:24:09.662Z,246
2022-10-18T08:25:09.660Z,273
2022-10-18T08:26:09.671Z,268
2022-10-18T08:27:09.681Z,259
2022-10-18T08:28:09.721Z,235
2022-10-18T08:29:23.005Z,235
2022-10-18T08:30:09.653Z,245
2022-10-18T08:31:09.653Z,260
2022-10-18T08:32:09.735Z,247
2022-10-18T08:33:09.656Z,234
2022-10-18T08:34:09.655Z,252
2022-10-18T08:35:09.690Z,269
2022-10-18T08:36:09.678Z,239
2022-10-18T08:37:09.669Z,250
2022-10-18T08:38:09.656Z,250
2022-10-18T08:39:09.648Z,241
2022-10-18T08:40:09.656Z,238
2022-10-18T08:41:09.640Z,226
2022-10-18T08:42:09.658Z,238
2022-10-18T08:43:09.651Z,252
2022-10-18T08:44:09.646Z,225
2022-10-18T08:45:17.970Z,227
2022-10-18T08:46:09.640Z,221
2022-10-18T08:47:09.651Z,229
2022-10-18T08:48:09.638Z,230
2022-10-18T08:49:09.634Z,242
2022-10-18T08:50:09.647Z,228
2022-10-18T08:51:09.658Z,232
2022-10-18T08:52:09.636Z,225
2022-10-18T08:53:09.642Z,224
2022-10-18T08:54:09.632Z,220
2022-10-18T08:55:09.634Z,223
2022-10-18T08:56:09.628Z,221
2022-10-18T08:57:09.639Z,216
2022-10-18T08:58:09.680Z,230
2022-10-18T08:59:09.619Z,225
2022-10-18T09:00:09.624Z,216
2022-10-18T09:01:09.625Z,217
2022-10-18T09:02:09.620Z,228
2022-10-18T09:03:09.660Z,215
2022-10-18T09:04:09.615Z,206
2022-10-18T09:05:09.627Z,215
2022-10-18T09:06:09.612Z,221
2022-10-18T09:07:09.679Z,225
2022-10-18T09:08:09.619Z,242
2022-10-18T09:09:09.611Z,233
2022-10-18T09:10:09.723Z,240
2022-10-18T09:11:09.610Z,251
2022-10-18T09:12:09.628Z,230
2022-10-18T09:13:09.630Z,251
2022-10-18T09:14:09.608Z,227
2022-10-18T09:15:09.613Z,220
2022-10-18T09:16:09.611Z,232
2022-10-18T09:17:14.986Z,234
2022-10-18T09:18:09.644Z,240
2022-10-18T09:19:09.602Z,237
2022-10-18T09:20:09.614Z,238
2022-10-18T09:21:09.604Z,246
2022-10-18T09:22:09.768Z,256
2022-10-18T09:23:09.633Z,228
2022-10-18T09:24:09.596Z,216
2022-10-18T09:25:09.599Z,225
2022-10-18T09:26:09.610Z,235
2022-10-18T09:27:09.611Z,234
2022-10-18T09:28:09.589Z,224
2022-10-18T09:29:09.732Z,210
2022-10-18T09:30:09.580Z,185
2022-10-18T09:31:09.599Z,183
2022-10-18T09:32:09.596Z,182
2022-10-18T09:33:09.580Z,173
2022-10-18T09:34:09.598Z,166
2022-10-18T09:35:09.584Z,166
2022-10-18T09:36:09.600Z,159
2022-10-18T09:37:09.583Z,162
2022-10-18T09:38:09.581Z,164
2022-10-18T09:39:09.632Z,166
2022-10-18T09:40:09.576Z,162
2022-10-18T09:41:10.760Z,162
2022-10-18T09:42:09.569Z,162
2022-10-18T09:43:09.573Z,164
2022-10-18T09:44:09.592Z,161
2022-10-18T09:45:09.567Z,160
2022-10-18T09:46:09.597Z,151
2022-10-18T09:47:12.294Z,156
2022-10-18T09:48:09.573Z,158
2022-10-18T09:49:12.915Z,154
2022-10-18T09:50:09.565Z,155
2022-10-18T09:51:09.565Z,155
2022-10-18T09:52:09.589Z,153
2022-10-18T09:53:09.562Z,153
2022-10-18T09:54:09.572Z,150
2022-10-18T09:55:09.579Z,157
2022-10-18T09:56:09.619Z,155
2022-10-18T09:57:09.554Z,157
2022-10-18T09:58:09.585Z,159
2022-10-18T09:59:09.555Z,167
2022-10-18T10:00:09.558Z,175
2022-10-18T10:01:09.560Z,172
2022-10-18T10:02:09.576Z,180
2022-10-18T10:03:09.558Z,183
2022-10-18T10:04:10.550Z,187
2022-10-18T10:06:09.552Z,182
2022-10-18T10:07:09.545Z,180
2022-10-18T10:08:09.570Z,191
2022-10-18T10:09:09.572Z,187
2022-10-18T10:10:09.554Z,193
2022-10-18T10:11:09.563Z,191
2022-10-18T10:12:09.560Z,195
2022-10-18T10:13:09.541Z,188
2022-10-18T10:14:09.584Z,193
2022-10-18T10:15:09.544Z,201
2022-10-18T10:16:09.533Z,201
2022-10-18T10:17:09.530Z,203
2022-10-18T10:18:09.566Z,200
2022-10-18T10:19:09.548Z,194
2022-10-18T10:20:09.530Z,190
2022-10-18T10:21:09.531Z,194
2022-10-18T10:22:09.534Z,180
2022-10-18T10:23:09.592Z,196
2022-10-18T10:24:09.538Z,181
2022-10-18T10:25:09.525Z,178
2022-10-18T10:26:09.529Z,182
2022-10-18T10:27:09.547Z,179
2022-10-18T10:28:09.541Z,181
2022-10-18T10:29:17.599Z,181
2022-10-18T10:30:09.523Z,179
2022-10-18T10:31:09.514Z,177
2022-10-18T10:32:09.510Z,166
2022-10-18T10:33:09.538Z,165
2022-10-18T10:34:09.514Z,165
2022-10-18T10:35:13.622Z,158
2022-10-18T10:36:09.506Z,153
2022-10-18T10:37:09.505Z,152
2022-10-18T10:38:09.511Z,149
2022-10-18T10:39:09.502Z,160
2022-10-18T10:40:28.360Z,168
2022-10-18T10:41:09.503Z,165
2022-10-18T10:42:11.457Z,170
2022-10-18T10:43:18.137Z,171
2022-10-18T10:44:09.502Z,176
2022-10-18T10:45:09.504Z,168
2022-10-18T10:46:09.493Z,158
2022-10-18T10:47:09.514Z,165
2022-10-18T10:48:09.501Z,154
2022-10-18T10:49:38.612Z,152
2022-10-18T10:50:09.504Z,153
2022-10-18T10:51:09.495Z,167
2022-10-18T10:52:26.405Z,176
2022-10-18T10:53:09.495Z,175
2022-10-18T10:54:09.489Z,177
2022-10-18T10:55:30.761Z,178
2022-10-18T10:56:10.581Z,166
2022-10-18T10:57:09.504Z,162
2022-10-18T10:58:09.484Z,151
2022-10-18T10:59:09.590Z,148
2022-10-18T11:00:09.485Z,147
2022-10-18T11:01:11.295Z,145
2022-10-18T11:02:09.496Z,151
2022-10-18T11:03:27.305Z,155
2022-10-18T11:04:09.575Z,156
2022-10-18T11:05:09.481Z,155
2022-10-18T11:06:09.489Z,166
2022-10-18T11:07:09.490Z,169
2022-10-18T11:08:09.479Z,166
2022-10-18T11:09:09.469Z,162
2022-10-18T11:10:09.475Z,162
2022-10-18T11:11:09.471Z,150
2022-10-18T11:12:09.481Z,151
2022-10-18T11:13:09.475Z,153
2022-10-18T11:14:26.551Z,150
2022-10-18T11:15:09.493Z,150
2022-10-18T11:16:09.470Z,156
2022-10-18T11:17:09.527Z,164
2022-10-18T11:18:09.521Z,181
2022-10-18T11:19:09.462Z,174
2022-10-18T11:20:09.465Z,172
2022-10-18T11:21:09.462Z,181
2022-10-18T11:22:09.473Z,192
2022-10-18T11:23:09.454Z,189
2022-10-18T11:24:09.471Z,197
2022-10-18T11:25:09.462Z,189
2022-10-18T11:26:09.455Z,201
2022-10-18T11:27:10.439Z,195
2022-10-18T11:28:09.470Z,178
2022-10-18T11:29:09.445Z,182
2022-10-18T11:30:09.454Z,190
2022-10-18T11:31:09.474Z,206
2022-10-18T11:32:09.440Z,208
2022-10-18T11:33:09.456Z,208
2022-10-18T11:34:10.291Z,184
2022-10-18T11:35:09.445Z,183
2022-10-18T11:36:09.438Z,189
2022-10-18T11:37:27.252Z,201
2022-10-18T11:38:09.454Z,204
2022-10-18T11:39:09.445Z,197
2022-10-18T11:40:09.432Z,191
2022-10-18T11:41:09.448Z,189
2022-10-18T11:42:09.450Z,197
2022-10-18T11:43:09.434Z,203
2022-10-18T11:44:09.455Z,200
2022-10-18T11:45:09.424Z,207
2022-10-18T11:46:09.423Z,193
2022-10-18T11:47:09.496Z,183
2022-10-18T11:48:09.426Z,198
2022-10-18T11:49:09.433Z,206
2022-10-18T11:50:09.426Z,214
2022-10-18T11:51:09.438Z,219
2022-10-18T11:52:09.650Z,230
2022-10-18T11:53:09.424Z,210
2022-10-18T11:54:09.418Z,223
2022-10-18T11:55:09.437Z,230
2022-10-18T11:56:09.440Z,222
2022-10-18T11:57:09.424Z,201
2022-10-18T11:58:09.414Z,202
2022-10-18T11:59:09.416Z,180
2022-10-18T12:00:09.431Z,190
2022-10-18T12:01:09.414Z,219
2022-10-18T12:02:09.470Z,203
2022-10-18T12:03:09.548Z,183
2022-10-18T12:04:09.409Z,202
2022-10-18T12:05:23.232Z,217
2022-10-18T12:06:09.405Z,207
2022-10-18T12:07:09.409Z,214
2022-10-18T12:08:09.416Z,204
2022-10-18T12:09:09.404Z,207
2022-10-18T12:10:09.575Z,202
2022-10-18T12:11:09.395Z,213
2022-10-18T12:12:10.403Z,228
2022-10-18T12:13:09.400Z,220
2022-10-18T12:14:09.454Z,231
2022-10-18T12:15:09.409Z,223
2022-10-18T12:16:09.408Z,226
2022-10-18T12:17:39.292Z,232
2022-10-18T12:18:09.424Z,246
2022-10-18T12:19:09.424Z,244
2022-10-18T12:20:09.438Z,248
2022-10-18T12:21:09.403Z,237
2022-10-18T12:22:09.406Z,244
2022-10-18T12:23:09.418Z,251
2022-10-18T12:24:09.381Z,246
2022-10-18T12:25:09.381Z,248
2022-10-18T12:26:09.383Z,254
2022-10-18T12:27:09.378Z,281
2022-10-18T12:28:09.406Z,288
2022-10-18T12:29:09.377Z,291
2022-10-18T12:30:09.389Z,296
2022-10-18T12:31:10.777Z,317
2022-10-18T12:32:09.378Z,307
2022-10-18T12:33:27.093Z,302
2022-10-18T12:34:09.377Z,318
2022-10-18T12:35:09.409Z,333
2022-10-18T12:36:09.376Z,317
2022-10-18T12:37:09.367Z,348
2022-10-18T12:38:09.385Z,309
2022-10-18T12:39:09.382Z,319
2022-10-18T12:40:11.536Z,320
2022-10-18T12:41:09.371Z,344
2022-10-18T12:42:09.370Z,344
2022-10-18T12:43:09.375Z,363
2022-10-18T12:44:09.363Z,338
2022-10-18T12:45:09.377Z,363
2022-10-18T12:46:13.330Z,374
2022-10-18T12:47:09.360Z,347
2022-10-18T12:48:09.359Z,350
2022-10-18T12:49:09.374Z,322
2022-10-18T12:50:09.353Z,338
2022-10-18T12:51:09.377Z,352
2022-10-18T12:52:09.356Z,372
2022-10-18T12:53:09.350Z,404
2022-10-18T12:54:09.366Z,416
2022-10-18T12:55:11.815Z,404
2022-10-18T12:56:09.354Z,361
2022-10-18T12:57:09.352Z,368
2022-10-18T12:58:09.382Z,360
2022-10-18T12:59:09.374Z,372
2022-10-18T13:00:09.349Z,353
2022-10-18T13:01:09.422Z,344
2022-10-18T13:02:09.355Z,355
2022-10-18T13:03:09.334Z,422
2022-10-18T13:04:09.347Z,366
2022-10-18T13:05:16.576Z,383
2022-10-18T13:06:09.355Z,417
2022-10-18T13:07:09.357Z,392
2022-10-18T13:08:09.350Z,387
2022-10-18T13:09:09.338Z,395
2022-10-18T13:10:09.334Z,403
2022-10-18T13:11:09.342Z,400
2022-10-18T13:12:09.350Z,388
2022-10-18T13:13:29.710Z,387
2022-10-18T13:14:09.337Z,380
2022-10-18T13:15:25.005Z,398
2022-10-18T13:16:09.328Z,375
2022-10-18T13:17:09.348Z,388
2022-10-18T13:18:09.366Z,440
2022-10-18T13:19:09.325Z,394
2022-10-18T13:20:24.965Z,415
2022-10-18T13:21:09.320Z,382
2022-10-18T13:22:09.324Z,387
2022-10-18T13:23:09.443Z,458
2022-10-18T13:24:09.315Z,424
2022-10-18T13:25:09.321Z,393
2022-10-18T13:26:09.318Z,419
2022-10-18T13:27:24.507Z,434
2022-10-18T13:28:09.331Z,406
2022-10-18T13:29:09.399Z,397
2022-10-18T13:30:09.304Z,405
2022-10-18T13:31:09.304Z,437
2022-10-18T13:32:09.356Z,434
2022-10-18T13:33:09.318Z,398
2022-10-18T13:34:09.303Z,425
2022-10-18T13:35:09.300Z,427
2022-10-18T13:36:09.313Z,445
2022-10-18T13:37:09.301Z,421
2022-10-18T13:38:09.329Z,431
2022-10-18T13:39:09.327Z,405
2022-10-18T13:40:09.297Z,407
2022-10-18T13:41:09.347Z,407
2022-10-18T13:42:09.290Z,425
2022-10-18T13:43:09.314Z,416
2022-10-18T13:44:09.293Z,404
2022-10-18T13:45:09.292Z,431
2022-10-18T13:46:09.299Z,623
2022-10-18T13:47:09.299Z,454
2022-10-18T13:48:09.306Z,458
2022-10-18T13:49:09.287Z,448
2022-10-18T13:50:09.293Z,463
2022-10-18T13:51:09.301Z,481
2022-10-18T13:52:09.277Z,446
2022-10-18T13:53:09.295Z,413
2022-10-18T13:54:09.282Z,413
2022-10-18T13:55:09.300Z,410